Briefing drone pour Imphy

Rechercher une autre localisation

Conditions de vol :


Nous sommes le : Jeudi 04 mars 2021
Il est 02:40 UTC (03:40 LT)

Lever de soleil : 05:53 UTC (06:53 LT)
Coucher de soleil : 18:03 UTC (19:03 LT)

Météo

L'essentiel des conditions de vol

VIGILANCE MÉTÉO FRANCE - Nièvre (58)
Pas de vigilances particulieres
CARTE TEMSI
CARTES DES FRONTS
METAR de LFQG
LFQG 031800Z AUTO 00000KT CAVOK 08/04 Q1027

Date d'émission: 03/03/2021
Heure d'émission: 18:00 UTC
Vent: Calme
Visibilité horizontale: > 10 km
Plafond : Plafond et visibilité OK (CAVOK)
Température: 8 °C
Point de rosée: 4 °C
Humidité: 76%
Pression (QNH): 1027 hPa
Prévision 24h pour Nevers (5 km)
Vent : 10° pour 1 KT (5 km/h)
Temperature Maxi: 5 °C
Temperature Min: 5 °C
Humidité : 96%
Condition : Peu nuageux



Warning: count(): Parameter must be an array or an object that implements Countable in /homepages/6/d509196549/htdocs/droneoxygene/briefing.php on line 743
WEBCAM POUR IMPHY

Réglementation

Voler en sécurité

CARTES AERONAUTIQUE 1/500.000
CARTES VAC (LFQG)
SUP AIP




Chargement des AIP...
NOTAM (IMPHY + Terrain à proximité / FIR )




Chargement des NOTAMS...
CONTACT PREFECTURE 58


Avertissement : Les données mises à disposition sont indicatives. Oxygène Drone ne pourra être tenu responsable de dégâts causés aux biens et aux personnes.